Terminal Aerodrome Forecast
Issued by NWS

Home | Current Version | Previous Version | Text Only | Print | Product List | Glossary On
Versions: 1 2 3 4 5 6 7 8 9 10 11 12 13 14 15 16 17 18 19
137
FTUS43 KIND 050530
TAFHUF
TAF
KHUF 050530Z 0506/0606 33010KT P6SM BKN080
     FM050900 34012KT P6SM BKN020
     FM051600 35012KT P6SM BKN035
     FM051700 36013KT P6SM SCT050
     FM052200 35013KT P6SM SCT050
     FM060200 36006KT P6SM FEW250=

USA.gov is the U.S. government's official web portal to all federal, state and local government web resources and services.